Terminal Aerodrome Forecast
Issued by NWS Newport/Morehead City, NC

Home | Current Version | Previous Version | Text Only | Print | Product List | Glossary Off
Versions: 1 2 3 4 5 6 7 8 9 10 11 12 13 14 15 16 17 18 19 20 21

469
FTUS42 KMHX 161736
TAFEWN
TAF
KEWN 161736Z 1618/1718 25015G20KT P6SM FEW025
     FM162300 28010KT P6SM VCSH BKN090
     FM170200 34010KT P6SM VCSH OVC035
     FM170400 35010KT P6SM OVC030
     FM170700 03010KT P6SM OVC020=

USA.gov is the U.S. government's official web portal to all federal, state and local government web resources and services.